Time;durP1;ratioP1;P1;durP2;ratioP2;P2;SDS_P1;SDS_P2;PMS_P1;PMS_P2;Temp;Humidity;BMP_temperature;BMP_pressure;BME280_temperature;BME280_humidity;BME280_pressure;Samples;Min_cycle;Max_cycle;Signal;HPM_P1;HPM_P2
2023/03/08 00:00:19;;;;;;;;;;;;;;;-2.22;100.00;159996.75;5093764;28;19912;-61
2023/03/08 00:02:45;;;;;;;;;;;;;;;-2.25;100.00;159991.38;5093916;28;19911;-61
2023/03/08 00:05:10;;;;;;;;;;;;;;;-2.26;100.00;159987.38;5092416;28;19926;-61
2023/03/08 00:07:35;;;;;;;;;;;;;;;-2.25;100.00;159990.06;5075788;28;19977;-61
2023/03/08 00:10:01;;;;;;;;;;;;;;;-2.25;100.00;159990.06;5092134;28;19985;-61
2023/03/08 00:12:27;;;;;;;;;;;;;;;-2.25;100.00;159991.38;5094220;28;19908;-61
2023/03/08 00:14:52;;;;;;;;;;;;;;;-2.14;100.00;160018.16;5092139;28;19969;-61
2023/03/08 00:17:17;;;;;;;;;;;;;;;-2.12;100.00;160023.47;5093700;28;19916;-61
2023/03/08 00:19:43;;;;;;;;;;;;;;;-2.13;100.00;160020.84;5092249;28;19907;-61
2023/03/08 00:22:08;;;;;;;;;;;;;;;-2.19;100.00;160004.75;5093581;28;19974;-61
2023/03/08 00:24:34;;;;;;;;;;;;;;;-2.26;100.00;159988.69;5091879;28;19908;-61
2023/03/08 00:26:59;;;;;;;;;;;;;;;-2.35;100.00;159964.66;5094028;28;20365;-61
2023/03/08 00:29:24;;;;;;;;;;;;;;;-2.37;100.00;159959.28;5092514;28;19915;-59
2023/03/08 00:31:49;;;;;;;;;;;;;;;-2.32;100.00;159972.66;5093224;28;19999;-60
2023/03/08 00:34:15;;;;;;;;;;;;;;;-2.32;100.00;159972.66;5093656;28;20370;-61
2023/03/08 00:36:40;;;;;;;;;;;;;;;-2.37;100.00;159959.28;5091277;28;19923;-60
2023/03/08 00:39:05;;;;;;;;;;;;;;;-2.42;100.00;159945.94;5093482;28;19915;-60
2023/03/08 00:41:30;;;;;;;;;;;;;;;-2.52;100.00;159919.16;5091605;28;19931;-60
2023/03/08 00:43:56;;;;;;;;;;;;;;;-2.59;100.00;159903.13;5093427;28;19915;-60
2023/03/08 00:46:21;;;;;;;;;;;;;;;-2.65;100.00;159887.09;5091942;28;19912;-61
2023/03/08 00:48:46;;;;;;;;;;;;;;;-2.67;100.00;159881.72;5092480;28;19912;-61
2023/03/08 00:51:13;;;;;;;;;;;;;;;-2.71;100.00;159872.34;5080394;28;19935;-61
2023/03/08 00:53:38;;;;;;;;;;;;;;;-2.71;100.00;159871.00;5072973;28;20355;-61
2023/03/08 00:56:03;;;;;;;;;;;;;;;-2.73;100.00;159865.69;5071221;28;19919;-61
2023/03/08 00:58:29;;;;;;;;;;;;;;;-2.78;100.00;159852.28;5072927;28;19916;-62
2023/03/08 01:00:55;;;;;;;;;;;;;;;-2.82;100.00;159842.91;5071040;28;19931;-61
2023/03/08 01:03:23;;;;;;;;;;;;;;;-2.87;100.00;159830.88;5072445;28;19909;-62
2023/03/08 01:05:50;;;;;;;;;;;;;;;-2.89;100.00;159825.56;5071074;28;19947;-61
2023/03/08 01:08:15;;;;;;;;;;;;;;;-2.92;100.00;159817.50;5072813;28;19912;-60
2023/03/08 01:10:46;;;;;;;;;;;;;;;-2.89;100.00;159825.56;5070644;28;19924;-61
2023/03/08 01:13:11;;;;;;;;;;;;;;;-2.87;100.00;159830.88;5071478;28;19942;-61
2023/03/08 01:15:36;;;;;;;;;;;;;;;-2.87;100.00;159830.88;5071048;28;19943;-61
2023/03/08 01:18:02;;;;;;;;;;;;;;;-2.87;100.00;159829.56;5072114;28;19966;-61
2023/03/08 01:20:27;;;;;;;;;;;;;;;-2.89;100.00;159825.56;5079792;28;19916;-61
2023/03/08 01:22:52;;;;;;;;;;;;;;;-2.91;100.00;159820.19;5092416;28;19987;-61
2023/03/08 01:25:17;;;;;;;;;;;;;;;-2.90;100.00;159822.88;5090921;28;19920;-61
2023/03/08 01:27:43;;;;;;;;;;;;;;;-2.79;100.00;159849.63;5092065;28;19916;-61
2023/03/08 01:30:08;;;;;;;;;;;;;;;-2.71;100.00;159871.00;5091137;28;20393;-61
2023/03/08 01:32:33;;;;;;;;;;;;;;;-2.64;100.00;159889.72;5091423;28;19912;-61
2023/03/08 01:35:03;;;;;;;;;;;;;;;-2.58;100.00;159904.44;5091005;28;20286;-61
2023/03/08 01:37:28;;;;;;;;;;;;;;;-2.51;100.00;159923.16;5092628;28;20013;-62
2023/03/08 01:39:53;;;;;;;;;;;;;;;-2.52;100.00;159919.16;5090257;28;19912;-62
2023/03/08 01:42:18;;;;;;;;;;;;;;;-2.58;100.00;159905.81;5092412;28;19962;-62
2023/03/08 01:44:48;;;;;;;;;;;;;;;-2.61;100.00;159896.44;5072512;28;19912;-61
2023/03/08 01:47:17;;;;;;;;;;;;;;;-2.66;100.00;159884.41;5091349;28;19911;-62
2023/03/08 01:49:43;;;;;;;;;;;;;;;-2.73;100.00;159865.69;5090211;28;19916;-62
2023/03/08 01:52:13;;;;;;;;;;;;;;;-2.76;100.00;159857.63;5092254;28;19915;-62
2023/03/08 01:54:41;;;;;;;;;;;;;;;-2.81;100.00;159844.28;5090125;28;19954;-62
2023/03/08 01:57:17;;;;;;;;;;;;;;;-2.84;100.00;159836.22;5092026;28;20011;-62
2023/03/08 01:59:43;;;;;;;;;;;;;;;-2.87;100.00;159830.88;5090508;28;19918;-62
2023/03/08 02:02:09;;;;;;;;;;;;;;;-2.91;100.00;159820.19;5091571;28;20285;-62
2023/03/08 02:04:34;;;;;;;;;;;;;;;-2.92;100.00;159817.50;5089974;28;19908;-62
2023/03/08 02:07:00;;;;;;;;;;;;;;;-2.97;100.00;159804.16;5091761;28;19904;-60
2023/03/08 02:09:25;;;;;;;;;;;;;;;-3.02;100.00;159790.81;5089943;28;19947;-60
2023/03/08 02:11:51;;;;;;;;;;;;;;;-2.92;100.00;159817.50;5091689;28;19908;-60
2023/03/08 02:14:16;;;;;;;;;;;;;;;-2.76;100.00;159857.63;5091825;28;20263;-60
2023/03/08 02:16:41;;;;;;;;;;;;;;;-2.70;100.00;159873.66;5089631;28;20367;-60
2023/03/08 02:19:13;;;;;;;;;;;;;;;-2.66;100.00;159884.41;5091066;28;19912;-60
2023/03/08 02:21:38;;;;;;;;;;;;;;;-2.65;100.00;159885.72;5069634;28;20003;-60
2023/03/08 02:24:05;;;;;;;;;;;;;;;-2.72;100.00;159868.34;5070813;28;20003;-60
2023/03/08 02:26:31;;;;;;;;;;;;;;;-2.78;100.00;159852.28;5069890;28;19939;-60
2023/03/08 02:28:56;;;;;;;;;;;;;;;-2.76;100.00;159857.63;5070892;28;19912;-60
2023/03/08 02:31:21;;;;;;;;;;;;;;;-2.73;100.00;159865.69;5069588;28;19957;-60
2023/03/08 02:33:46;;;;;;;;;;;;;;;-2.72;100.00;159869.66;5071287;28;19931;-60
2023/03/08 02:36:11;;;;;;;;;;;;;;;-2.71;100.00;159871.00;5069873;28;19916;-60
2023/03/08 02:38:37;;;;;;;;;;;;;;;-2.69;100.00;159876.34;5071959;28;19916;-60
2023/03/08 02:41:02;;;;;;;;;;;;;;;-2.65;100.00;159887.09;5069403;28;20009;-60
2023/03/08 02:43:27;;;;;;;;;;;;;;;-2.57;100.00;159908.44;5071067;28;19916;-60
2023/03/08 02:45:52;;;;;;;;;;;;;;;-2.49;100.00;159927.16;5069060;28;20057;-60
2023/03/08 02:48:18;;;;;;;;;;;;;;;-2.41;100.00;159949.94;5071236;28;19919;-60
2023/03/08 02:50:43;;;;;;;;;;;;;;;-2.34;100.00;159965.97;5069511;28;19924;-60
2023/03/08 02:53:08;;;;;;;;;;;;;;;-2.33;100.00;159969.97;5070718;28;19908;-60
2023/03/08 02:55:37;;;;;;;;;;;;;;;-2.28;100.00;159983.38;5069495;28;19920;-60
2023/03/08 02:58:05;;;;;;;;;;;;;;;-2.24;100.00;159994.06;5071049;28;19916;-60
2023/03/08 03:00:31;;;;;;;;;;;;;;;-2.24;100.00;159994.06;5069316;28;20306;-60
2023/03/08 03:02:56;;;;;;;;;;;;;;;-2.15;100.00;160015.47;5070803;28;19991;-60
2023/03/08 03:05:21;;;;;;;;;;;;;;;-2.11;100.00;160026.16;5069516;28;19920;-60
2023/03/08 03:07:46;;;;;;;;;;;;;;;-2.13;100.00;160020.84;5070391;28;19960;-60
2023/03/08 03:10:12;;;;;;;;;;;;;;;-2.10;100.00;160030.22;5069643;28;19916;-60
2023/03/08 03:12:37;;;;;;;;;;;;;;;-2.08;100.00;160034.22;5070960;28;20381;-60
2023/03/08 03:15:03;;;;;;;;;;;;;;;-2.07;100.00;160036.91;5069422;28;19923;-60
2023/03/08 03:17:29;;;;;;;;;;;;;;;-2.04;100.00;160044.88;5070931;28;19991;-61
2023/03/08 03:19:54;;;;;;;;;;;;;;;-2.02;100.00;160048.94;5079056;28;20011;-60
2023/03/08 03:22:20;;;;;;;;;;;;;;;-1.98;100.00;160061.00;5090668;28;19912;-61
2023/03/08 03:24:45;;;;;;;;;;;;;;;-2.01;100.00;160052.94;5089495;28;19912;-60
2023/03/08 03:27:10;;;;;;;;;;;;;;;-2.00;100.00;160055.63;5090978;28;19908;-61
2023/03/08 03:29:38;;;;;;;;;;;;;;;-1.95;100.00;160069.00;5088506;28;19912;-61
2023/03/08 03:32:03;;;;;;;;;;;;;;;-1.88;100.00;160085.03;5091043;28;19915;-61
2023/03/08 03:34:29;;;;;;;;;;;;;;;-1.88;100.00;160085.03;5089662;28;19908;-61
2023/03/08 03:36:54;;;;;;;;;;;;;;;-1.88;100.00;160085.03;5093287;28;20437;-61
2023/03/08 03:39:19;;;;;;;;;;;;;;;-1.82;100.00;160101.09;5094871;28;19995;-60
2023/03/08 03:41:44;;;;;;;;;;;;;;;-1.80;100.00;160106.47;5092696;28;19963;-61
2023/03/08 03:44:09;;;;;;;;;;;;;;;-1.76;100.00;160117.19;5094286;28;20256;-61
2023/03/08 03:46:35;;;;;;;;;;;;;;;-1.73;100.00;160125.19;5092754;28;19912;-61
2023/03/08 03:49:00;;;;;;;;;;;;;;;-1.71;100.00;160130.56;5094284;28;19916;-61
2023/03/08 03:51:25;;;;;;;;;;;;;;;-1.68;100.00;160138.59;5093103;28;20346;-61
2023/03/08 03:53:50;;;;;;;;;;;;;;;-1.72;100.00;160127.88;5093941;28;19908;-61
2023/03/08 03:56:17;;;;;;;;;;;;;;;-1.66;100.00;160143.94;5092944;28;19920;-61
2023/03/08 03:58:43;;;;;;;;;;;;;;;-1.65;100.00;160146.63;5094324;28;19946;-62
2023/03/08 04:01:09;;;;;;;;;;;;;;;-1.63;100.00;160151.97;5091820;28;20364;-62
2023/03/08 04:03:35;;;;;;;;;;;;;;;-1.61;100.00;160157.34;5094184;28;19916;-62
2023/03/08 04:06:11;;;;;;;;;;;;;;;-1.62;100.00;160154.66;5092769;28;20329;-62
2023/03/08 04:08:41;;;;;;;;;;;;;;;-1.65;100.00;160145.28;5093577;28;19912;-62
2023/03/08 04:11:07;;;;;;;;;;;;;;;-1.64;100.00;160149.28;5092704;28;19912;-60
2023/03/08 04:13:32;;;;;;;;;;;;;;;-1.62;100.00;160153.28;5094148;28;19977;-60
2023/03/08 04:15:57;;;;;;;;;;;;;;;-1.61;100.00;160157.34;5091721;28;20382;-60
2023/03/08 04:18:22;;;;;;;;;;;;;;;-1.61;100.00;160155.97;5094154;28;19933;-61
2023/03/08 04:20:47;;;;;;;;;;;;;;;-1.60;100.00;160159.97;5091874;28;19923;-61
2023/03/08 04:23:13;;;;;;;;;;;;;;;-1.58;100.00;160162.66;5093519;28;20541;-60
2023/03/08 04:25:38;;;;;;;;;;;;;;;-1.58;100.00;160162.66;5092095;28;19911;-60
2023/03/08 04:28:03;;;;;;;;;;;;;;;-1.56;100.00;160168.03;5093878;28;19919;-60
2023/03/08 04:30:29;;;;;;;;;;;;;;;-1.57;100.00;160165.34;5075229;28;20306;-61
2023/03/08 04:32:54;;;;;;;;;;;;;;;-1.56;100.00;160168.03;5073263;28;20355;-60
2023/03/08 04:35:20;;;;;;;;;;;;;;;-1.55;100.00;160172.03;5072105;28;19924;-60
2023/03/08 04:37:45;;;;;;;;;;;;;;;-1.55;100.00;160172.03;5073027;28;19944;-61
2023/03/08 04:40:12;;;;;;;;;;;;;;;-1.54;100.00;160174.72;5072002;28;19913;-61
2023/03/08 04:42:39;;;;;;;;;;;;;;;-1.55;100.00;160170.72;5073040;28;19931;-61
2023/03/08 04:45:05;;;;;;;;;;;;;;;-1.59;100.00;160161.34;5071694;28;20006;-61
2023/03/08 04:47:30;;;;;;;;;;;;;;;-1.60;100.00;160159.97;5072961;28;20337;-61
2023/03/08 04:49:55;;;;;;;;;;;;;;;-1.55;100.00;160170.72;5071598;28;19924;-61
2023/03/08 04:52:20;;;;;;;;;;;;;;;-1.56;100.00;160169.34;5072669;28;20321;-60
2023/03/08 04:54:45;;;;;;;;;;;;;;;-1.60;100.00;160159.97;5071480;28;19919;-60
2023/03/08 04:57:10;;;;;;;;;;;;;;;-1.57;100.00;160165.34;5073181;28;19999;-61
2023/03/08 04:59:36;;;;;;;;;;;;;;;-1.61;100.00;160157.34;5070867;28;19916;-60
2023/03/08 05:02:02;;;;;;;;;;;;;;;-1.59;100.00;160161.34;5073213;28;19912;-61
2023/03/08 05:04:27;;;;;;;;;;;;;;;-1.61;100.00;160157.34;5071843;28;19908;-61
2023/03/08 05:06:52;;;;;;;;;;;;;;;-1.57;100.00;160166.72;5072244;28;19994;-60
2023/03/08 05:09:18;;;;;;;;;;;;;;;-1.58;100.00;160164.03;5085605;28;19916;-60
2023/03/08 05:11:43;;;;;;;;;;;;;;;-1.54;100.00;160173.41;5091299;28;19918;-63
2023/03/08 05:14:08;;;;;;;;;;;;;;;-1.53;100.00;160176.09;5076513;28;19965;-61
2023/03/08 05:16:33;;;;;;;;;;;;;;;-1.50;100.00;160184.09;5070840;28;20421;-61
2023/03/08 05:18:58;;;;;;;;;;;;;;;-1.48;100.00;160189.47;5072707;28;19947;-61
2023/03/08 05:21:23;;;;;;;;;;;;;;;-1.51;100.00;160182.78;5074017;28;19916;-60
2023/03/08 05:23:49;;;;;;;;;;;;;;;-1.50;100.00;160184.09;5081262;28;19907;-61
2023/03/08 05:26:15;;;;;;;;;;;;;;;-1.54;100.00;160173.41;5091247;28;20450;-61
2023/03/08 05:28:40;;;;;;;;;;;;;;;-1.47;100.00;160192.13;5084919;28;19916;-61
2023/03/08 05:31:17;;;;;;;;;;;;;;;-1.50;100.00;160185.47;5074560;28;19955;-61
2023/03/08 05:33:45;;;;;;;;;;;;;;;-1.50;100.00;160184.09;5072157;28;20038;-61
2023/03/08 05:36:11;;;;;;;;;;;;;;;-1.45;100.00;160198.81;5071858;28;19924;-61
2023/03/08 05:38:36;;;;;;;;;;;;;;;-1.43;100.00;160202.81;5080328;28;19912;-61
2023/03/08 05:41:02;;;;;;;;;;;;;;;-1.50;100.00;160185.47;5070927;28;19927;-60
2023/03/08 05:43:28;;;;;;;;;;;;;;;-1.50;100.00;160184.09;5071997;28;19908;-60
2023/03/08 05:45:57;;;;;;;;;;;;;;;-1.61;100.00;160157.34;5070409;28;20003;-60
2023/03/08 05:48:23;;;;;;;;;;;;;;;-1.48;100.00;160189.47;5071998;28;19939;-60
2023/03/08 05:50:48;;;;;;;;;;;;;;;-1.50;100.00;160184.09;5070151;28;20324;-60
2023/03/08 05:53:13;;;;;;;;;;;;;;;-1.47;100.00;160192.13;5071839;28;19912;-59
2023/03/08 05:55:38;;;;;;;;;;;;;;;-1.53;100.00;160176.09;5070217;28;19912;-60
2023/03/08 05:58:04;;;;;;;;;;;;;;;-1.58;100.00;160162.66;5070917;28;20263;-60
2023/03/08 06:00:29;;;;;;;;;;;;;;;-1.54;100.00;160173.41;5070171;28;19913;-59
2023/03/08 06:02:54;;;;;;;;;;;;;;;-1.62;100.00;160154.66;5071640;28;19908;-59
2023/03/08 06:05:19;;;;;;;;;;;;;;;-1.63;100.00;160151.97;5070102;28;20493;-60
2023/03/08 06:07:44;;;;;;;;;;;;;;;-1.60;100.00;160159.97;5070570;28;19923;-59
2023/03/08 06:10:10;;;;;;;;;;;;;;;-1.62;100.00;160154.66;5069706;28;19913;-60
2023/03/08 06:12:35;;;;;;;;;;;;;;;-1.58;100.00;160162.66;5070969;28;20002;-60
2023/03/08 06:15:00;;;;;;;;;;;;;;;-1.56;100.00;160168.03;5070284;28;19913;-60
2023/03/08 06:17:25;;;;;;;;;;;;;;;-1.55;100.00;160170.72;5071521;28;19957;-60
2023/03/08 06:19:50;;;;;;;;;;;;;;;-1.49;100.00;160188.09;5069467;28;19912;-60
2023/03/08 06:22:16;;;;;;;;;;;;;;;-1.49;100.00;160186.78;5071470;28;20391;-60
2023/03/08 06:24:41;;;;;;;;;;;;;;;-1.55;100.00;160172.03;5070155;28;19908;-60
2023/03/08 06:27:06;;;;;;;;;;;;;;;-1.54;100.00;160173.41;5071066;28;19904;-60
2023/03/08 06:29:31;;;;;;;;;;;;;;;-1.51;100.00;160181.41;5070035;28;20027;-60
2023/03/08 06:31:56;;;;;;;;;;;;;;;-1.50;100.00;160184.09;5071050;28;19931;-60
2023/03/08 06:34:22;;;;;;;;;;;;;;;-1.50;100.00;160184.09;5071215;28;20270;-60
2023/03/08 06:36:47;;;;;;;;;;;;;;;-1.51;100.00;160181.41;5069478;28;19973;-60
2023/03/08 06:39:12;;;;;;;;;;;;;;;-1.53;100.00;160177.41;5071250;28;19966;-60
2023/03/08 06:41:37;;;;;;;;;;;;;;;-1.49;100.00;160186.78;5069257;28;20335;-60
2023/03/08 06:44:02;;;;;;;;;;;;;;;-1.50;100.00;160184.09;5070960;28;19976;-60
2023/03/08 06:46:28;;;;;;;;;;;;;;;-1.43;100.00;160202.81;5069504;28;19961;-60
2023/03/08 06:48:53;;;;;;;;;;;;;;;-1.42;100.00;160205.50;5070949;28;20003;-60
2023/03/08 06:51:18;;;;;;;;;;;;;;;-1.37;100.00;160218.88;5069125;28;19916;-60
2023/03/08 06:53:44;;;;;;;;;;;;;;;-1.39;100.00;160212.19;5071098;28;19979;-60
2023/03/08 06:56:11;;;;;;;;;;;;;;;-1.38;100.00;160216.25;5069597;28;19917;-60
2023/03/08 06:58:36;;;;;;;;;;;;;;;-1.29;100.00;160239.00;5070443;28;19908;-60
2023/03/08 07:01:03;;;;;;;;;;;;;;;-1.29;100.00;160240.31;5069572;28;20394;-60
2023/03/08 07:03:28;;;;;;;;;;;;;;;-1.28;100.00;160241.69;5071055;28;19912;-61
2023/03/08 07:05:57;;;;;;;;;;;;;;;-1.30;100.00;160237.63;5067783;28;19927;-60
2023/03/08 07:08:23;;;;;;;;;;;;;;;-1.26;100.00;160247.00;5070860;28;19916;-60
2023/03/08 07:10:48;;;;;;;;;;;;;;;-1.17;100.00;160269.78;5072225;28;19913;-60
2023/03/08 07:13:13;;;;;;;;;;;;;;;-1.30;100.00;160236.31;5074650;28;20441;-60
2023/03/08 07:15:39;;;;;;;;;;;;;;;-1.20;100.00;160261.75;5073394;28;19912;-60
2023/03/08 07:18:04;;;;;;;;;;;;;;;-1.20;100.00;160263.09;5074767;28;19955;-60
2023/03/08 07:20:29;;;;;;;;;;;;;;;-1.14;100.00;160277.78;5072899;28;19920;-61
2023/03/08 07:22:55;;;;;;;;;;;;;;;-1.07;100.00;160296.53;5074159;28;20317;-60
2023/03/08 07:25:20;;;;;;;;;;;;;;;-1.06;100.00;160299.22;5073154;28;19912;-60
2023/03/08 07:27:45;;;;;;;;;;;;;;;-1.03;100.00;160305.91;5074204;28;19962;-60
2023/03/08 07:30:12;;;;;;;;;;;;;;;-0.96;100.00;160326.03;5073308;28;20007;-60
2023/03/08 07:32:43;;;;;;;;;;;;;;;-0.89;100.00;160342.09;5074309;28;19951;-60
2023/03/08 07:35:10;;;;;;;;;;;;;;;-0.94;100.00;160328.72;5072533;28;20286;-60
2023/03/08 07:37:35;;;;;;;;;;;;;;;-0.83;100.00;160358.16;5074179;28;20367;-60
2023/03/08 07:40:00;;;;;;;;;;;;;;;-0.81;100.00;160364.84;5072773;28;19919;-60
2023/03/08 07:42:26;;;;;;;;;;;;;;;-0.80;100.00;160366.22;5073769;28;19923;-60
2023/03/08 07:44:51;;;;;;;;;;;;;;;-0.88;100.00;160346.09;5072565;28;19919;-60
2023/03/08 07:47:16;;;;;;;;;;;;;;;-0.66;100.00;160403.69;5074246;28;19981;-60
2023/03/08 07:49:42;;;;;;;;;;;;;;;-0.66;100.00;160402.34;5072024;28;19916;-60
2023/03/08 07:52:07;;;;;;;;;;;;;;;-0.60;100.00;160417.09;5074460;28;19909;-60
2023/03/08 07:54:32;;;;;;;;;;;;;;;-0.63;100.00;160410.38;5072375;28;19912;-60
2023/03/08 07:56:57;;;;;;;;;;;;;;;-0.62;100.00;160413.06;5073715;28;19916;-60
2023/03/08 07:59:23;;;;;;;;;;;;;;;-0.52;100.00;160438.53;5073800;28;20041;-60
2023/03/08 08:01:48;;;;;;;;;;;;;;;-0.42;100.00;160465.34;5071181;28;20302;-60
2023/03/08 08:04:13;;;;;;;;;;;;;;;-0.35;100.00;160484.09;5072767;28;19920;-60
2023/03/08 08:06:39;;;;;;;;;;;;;;;-0.25;100.00;160508.16;5050782;28;19959;-60
2023/03/08 08:09:05;;;;;;;;;;;;;;;-0.19;100.00;160524.28;5053579;28;19913;-60
2023/03/08 08:11:30;;;;;;;;;;;;;;;-0.15;100.00;160534.97;5051698;28;19919;-60
2023/03/08 08:13:55;;;;;;;;;;;;;;;-0.10;100.00;160548.38;5053502;28;20333;-60
2023/03/08 08:16:20;;;;;;;;;;;;;;;-0.06;100.00;160559.13;5052271;28;19920;-60
2023/03/08 08:18:45;;;;;;;;;;;;;;;-0.03;100.00;160567.13;5053042;28;20425;-60
2023/03/08 08:21:12;;;;;;;;;;;;;;;0.04;100.00;160584.56;5051389;28;19917;-60
2023/03/08 08:23:38;;;;;;;;;;;;;;;0.13;100.00;160607.34;5053420;28;20395;-60
2023/03/08 08:26:04;;;;;;;;;;;;;;;0.22;100.00;160631.47;5051741;28;19948;-60
2023/03/08 08:28:30;;;;;;;;;;;;;;;0.19;100.00;160623.41;5053320;28;19913;-60
2023/03/08 08:30:59;;;;;;;;;;;;;;;0.38;100.00;160671.69;5051917;28;19920;-60
2023/03/08 08:33:24;;;;;;;;;;;;;;;0.48;100.00;160698.50;5053278;28;20330;-60
2023/03/08 08:35:49;;;;;;;;;;;;;;;0.60;100.00;160730.66;5051747;28;19939;-59
2023/03/08 08:38:14;;;;;;;;;;;;;;;0.54;100.00;160714.59;5053096;28;19908;-60
2023/03/08 08:40:40;;;;;;;;;;;;;;;0.57;100.00;160721.28;5048223;28;19927;-59
2023/03/08 08:43:05;;;;;;;;;;;;;;;0.51;100.00;160705.22;5053124;28;19909;-59
2023/03/08 08:45:30;;;;;;;;;;;;;;;0.50;100.00;160703.84;5051579;28;20267;-59
2023/03/08 08:47:55;;;;;;;;;;;;;;;0.55;100.00;160717.28;5052170;28;19962;-59
2023/03/08 08:50:20;;;;;;;;;;;;;;;0.65;100.00;160742.75;5051441;28;20014;-59
2023/03/08 08:52:45;;;;;;;;;;;;;;;0.69;100.00;160753.44;5052728;28;19915;-59
2023/03/08 08:55:11;;;;;;;;;;;;;;;0.75;100.00;160768.22;5051422;28;20014;-59
2023/03/08 08:57:36;;;;;;;;;;;;;;;0.85;100.00;160793.69;5052864;28;20331;-59
2023/03/08 09:00:04;;;;;;;;;;;;;;;0.93;100.00;160815.13;5051196;28;19913;-59
2023/03/08 09:02:29;;;;;;;;;;;;;;;0.98;100.00;160828.53;5052214;28;19962;-60
2023/03/08 09:04:54;;;;;;;;;;;;;;;1.06;100.00;160848.69;5046931;28;19916;-59
2023/03/08 09:07:19;;;;;;;;;;;;;;;1.14;100.00;160870.13;5052262;28;19916;-60
2023/03/08 09:09:45;;;;;;;;;;;;;;;1.29;100.00;160907.69;5049612;28;19920;-60
2023/03/08 09:12:10;;;;;;;;;;;;;;;1.44;100.00;160947.94;5051840;28;19966;-59
2023/03/08 09:14:36;;;;;;;;;;;;;;;1.47;100.00;160954.63;5051011;28;20312;-59
2023/03/08 09:17:01;;;;;;;;;;;;;;;1.68;100.00;161009.59;5052847;28;19916;-60
2023/03/08 09:19:26;;;;;;;;;;;;;;;1.69;100.00;161012.31;5052430;28;19958;-59
2023/03/08 09:21:52;;;;;;;;;;;;;;;1.84;100.00;161052.56;5050792;28;19916;-59
2023/03/08 09:24:17;;;;;;;;;;;;;;;1.87;100.00;161060.63;5050394;28;19912;-59
2023/03/08 09:26:42;;;;;;;;;;;;;;;1.80;100.00;161041.84;5049806;28;19916;-59
2023/03/08 09:29:09;;;;;;;;;;;;;;;1.93;100.00;161075.41;5051851;28;19928;-59
2023/03/08 09:31:36;;;;;;;;;;;;;;;1.83;100.00;161048.53;5067747;28;20002;-59
2023/03/08 09:34:03;;;;;;;;;;;;;;;2.11;100.00;161122.38;5070444;28;19939;-60
2023/03/08 09:36:28;;;;;;;;;;;;;;;2.15;100.00;161133.09;5070574;28;19959;-59
2023/03/08 09:38:54;;;;;;;;;;;;;;;2.16;100.00;161135.78;5069241;28;19943;-59
2023/03/08 09:41:20;;;;;;;;;;;;;;;2.00;100.00;161092.81;5069550;28;19931;-59
2023/03/08 09:43:49;;;;;;;;;;;;;;;1.77;100.00;161033.78;5071831;28;19908;-59
2023/03/08 09:46:18;;;;;;;;;;;;;;;1.84;100.00;161052.56;5070321;28;19966;-60
2023/03/08 09:48:45;;;;;;;;;;;;;;;1.68;100.00;161009.59;5071408;28;19962;-59
2023/03/08 09:51:12;;;;;;;;;;;;;;;1.66;100.00;161004.28;5064619;28;19917;-59
2023/03/08 09:53:39;;;;;;;;;;;;;;;1.58;100.00;160985.50;5069023;28;19909;-59
2023/03/08 09:56:28;;;;;;;;;;;;;;;1.62;100.00;160994.88;5059838;28;19916;-59
2023/03/08 09:59:12;;;;;;;;;;;;;;;1.70;100.00;161016.34;5025615;28;20352;-59
2023/03/08 10:01:41;;;;;;;;;;;;;;;1.83;100.00;161049.88;5049734;28;20425;-59
2023/03/08 10:04:13;;;;;;;;;;;;;;;1.94;100.00;161078.03;5051836;28;20355;-60
2023/03/08 10:06:44;;;;;;;;;;;;;;;2.05;100.00;161107.59;5067063;28;20438;-60
2023/03/08 10:09:22;;;;;;;;;;;;;;;2.18;100.00;161139.78;5071436;28;19972;-59
2023/03/08 10:11:52;;;;;;;;;;;;;;;2.20;100.00;161146.50;5068731;28;20432;-59
2023/03/08 10:14:37;;;;;;;;;;;;;;;2.25;100.00;161157.25;5070364;28;20295;-59
2023/03/08 10:17:09;;;;;;;;;;;;;;;2.45;100.00;161209.63;5068455;28;19924;-59
2023/03/08 10:19:37;;;;;;;;;;;;;;;2.54;100.00;161233.75;5068651;28;20357;-59
2023/03/08 10:22:08;;;;;;;;;;;;;;;2.60;100.00;161248.53;5070821;28;20286;-59
2023/03/08 10:24:38;;;;;;;;;;;;;;;2.75;100.00;161288.81;5068668;28;20002;-59
2023/03/08 10:27:20;;;;;;;;;;;;;;;2.88;100.00;161322.41;5071530;28;19912;-60
2023/03/08 10:29:50;;;;;;;;;;;;;;;3.00;100.00;161354.59;5070154;28;19916;-60
2023/03/08 10:32:15;;;;;;;;;;;;;;;2.88;100.00;161321.03;5071342;28;19914;-59
2023/03/08 10:34:40;;;;;;;;;;;;;;;2.87;100.00;161318.38;5071528;28;19991;-59
2023/03/08 10:37:06;;;;;;;;;;;;;;;2.88;100.00;161322.41;5069707;28;19950;-59
2023/03/08 10:39:31;;;;;;;;;;;;;;;2.93;100.00;161334.50;5071144;28;19912;-59
2023/03/08 10:41:58;;;;;;;;;;;;;;;3.07;100.00;161372.09;5069149;28;19944;-59
2023/03/08 10:44:32;;;;;;;;;;;;;;;3.28;100.00;161427.13;5071193;28;20302;-59
2023/03/08 10:46:58;;;;;;;;;;;;;;;3.26;100.00;161420.41;5069387;28;20003;-59
2023/03/08 10:49:23;;;;;;;;;;;;;;;3.21;100.00;161407.00;5071023;28;20010;-59
2023/03/08 10:52:11;;;;;;;;;;;;;;;3.17;100.00;161398.91;5069458;28;19913;-59
2023/03/08 10:54:36;;;;;;;;;;;;;;;3.32;100.00;161436.53;5069322;28;19960;-59
2023/03/08 10:57:01;;;;;;;;;;;;;;;3.20;100.00;161405.69;5069529;28;19959;-59
2023/03/08 10:59:31;;;;;;;;;;;;;;;3.28;100.00;161425.81;5071330;28;19913;-59
2023/03/08 11:02:15;;;;;;;;;;;;;;;3.54;100.00;161493.00;5068878;28;19940;-59
2023/03/08 11:04:56;;;;;;;;;;;;;;;3.80;100.00;161561.47;5070850;28;19913;-59
2023/03/08 11:07:23;;;;;;;;;;;;;;;3.69;100.00;161533.25;5069358;28;19912;-59
2023/03/08 11:09:49;;;;;;;;;;;;;;;3.79;100.00;161558.81;5070425;28;19912;-59
2023/03/08 11:12:24;;;;;;;;;;;;;;;4.03;100.00;161621.97;5073496;28;19969;-60
2023/03/08 11:14:50;;;;;;;;;;;;;;;3.83;100.00;161568.22;5068831;28;19919;-59
2023/03/08 11:17:24;;;;;;;;;;;;;;;3.91;100.00;161589.75;5068521;28;19912;-59
2023/03/08 11:19:58;;;;;;;;;;;;;;;3.92;100.00;161592.38;5068171;28;19912;-59
2023/03/08 11:22:42;;;;;;;;;;;;;;;4.21;100.00;161669.00;5069219;28;19923;-59
2023/03/08 11:25:07;;;;;;;;;;;;;;;4.43;100.00;161726.78;5071548;28;19990;-59
2023/03/08 11:27:45;;;;;;;;;;;;;;;4.55;100.00;161757.72;5068988;28;19916;-59
2023/03/08 11:30:27;;;;;;;;;;;;;;;4.50;100.00;161742.97;5074614;28;19912;-59
2023/03/08 11:33:15;;;;;;;;;;;;;;;4.37;100.00;161710.66;5074788;28;19996;-60
2023/03/08 11:35:59;;;;;;;;;;;;;;;4.50;100.00;161742.97;5044614;28;20352;-60
2023/03/08 11:38:26;;;;;;;;;;;;;;;4.27;100.00;161683.81;5070263;28;19951;-60
2023/03/08 11:40:57;;;;;;;;;;;;;;;4.17;100.00;161658.22;5068601;28;20367;-60
2023/03/08 11:43:25;;;;;;;;;;;;;;;4.17;100.00;161656.91;5070654;28;19972;-60
2023/03/08 11:45:57;;;;;;;;;;;;;;;4.11;100.00;161643.47;5068730;28;19912;-60
2023/03/08 11:48:34;;;;;;;;;;;;;;;4.10;100.00;161640.78;5070638;28;20014;-60
2023/03/08 11:51:05;;;;;;;;;;;;;;;4.10;100.00;161639.41;5069173;28;20260;-60
2023/03/08 11:53:37;;;;;;;;;;;;;;;4.18;100.00;161659.59;5070132;28;20367;-60
2023/03/08 11:56:38;;;;;;;;;;;;;;;4.13;100.00;161648.81;5069215;28;20294;-60
2023/03/08 11:59:26;;;;;;;;;;;;;;;4.04;100.00;161623.28;4992280;28;19960;-60
2023/03/08 12:01:57;;;;;;;;;;;;;;;3.97;100.00;161605.84;5056357;28;19918;-60
2023/03/08 12:04:25;;;;;;;;;;;;;;;4.04;100.00;161624.66;5073909;28;19915;-60
2023/03/08 12:06:53;;;;;;;;;;;;;;;3.84;100.00;161570.88;5071980;28;19991;-60
2023/03/08 12:09:18;;;;;;;;;;;;;;;3.71;100.00;161537.31;5073772;28;19916;-60
2023/03/08 12:11:46;;;;;;;;;;;;;;;3.55;100.00;161495.63;5072159;28;20341;-60
2023/03/08 12:14:17;;;;;;;;;;;;;;;3.51;100.00;161484.91;5073833;28;20342;-60
2023/03/08 12:16:42;;;;;;;;;;;;;;;3.48;100.00;161479.53;5071702;28;19962;-60
2023/03/08 12:19:16;;;;;;;;;;;;;;;3.46;100.00;161474.13;5071664;28;19912;-60
2023/03/08 12:21:48;;;;;;;;;;;;;;;3.46;100.00;161472.81;5072031;28;19912;-60
2023/03/08 12:24:33;;;;;;;;;;;;;;;3.36;100.00;161447.31;5073361;28;19959;-60
2023/03/08 12:26:58;;;;;;;;;;;;;;;3.37;100.00;161450.00;5072309;28;19917;-60
2023/03/08 12:29:28;;;;;;;;;;;;;;;3.37;100.00;161448.63;5071999;28;20295;-57